sensor_id;sensor_type;location;lat;lon;timestamp;P1;durP1;ratioP1;P2;durP2;ratioP2
69789;SDS011;57064;52.046;4.800;2023-02-11T00:00:34;16.88;;;4.07;;
69789;SDS011;57064;52.046;4.800;2023-02-11T00:03:02;24.77;;;4.72;;
69789;SDS011;57064;52.046;4.800;2023-02-11T00:05:28;25.02;;;4.70;;
69789;SDS011;57064;52.046;4.800;2023-02-11T00:07:54;22.92;;;4.30;;
69789;SDS011;57064;52.046;4.800;2023-02-11T00:10:21;20.50;;;4.15;;
69789;SDS011;57064;52.046;4.800;2023-02-11T00:12:47;15.18;;;3.55;;
69789;SDS011;57064;52.046;4.800;2023-02-11T00:15:13;21.67;;;4.70;;
69789;SDS011;57064;52.046;4.800;2023-02-11T00:17:39;16.83;;;4.70;;
69789;SDS011;57064;52.046;4.800;2023-02-11T00:20:05;18.85;;;3.90;;
69789;SDS011;57064;52.046;4.800;2023-02-11T00:22:31;21.27;;;4.65;;
69789;SDS011;57064;52.046;4.800;2023-02-11T00:24:58;18.88;;;4.88;;
69789;SDS011;57064;52.046;4.800;2023-02-11T00:27:24;22.77;;;4.57;;
69789;SDS011;57064;52.046;4.800;2023-02-11T00:29:50;20.35;;;4.22;;
69789;SDS011;57064;52.046;4.800;2023-02-11T00:32:16;27.27;;;4.22;;
69789;SDS011;57064;52.046;4.800;2023-02-11T00:34:42;21.00;;;3.80;;
69789;SDS011;57064;52.046;4.800;2023-02-11T00:37:08;15.98;;;3.72;;
69789;SDS011;57064;52.046;4.800;2023-02-11T00:39:36;21.45;;;4.18;;
69789;SDS011;57064;52.046;4.800;2023-02-11T00:42:02;19.73;;;4.13;;
69789;SDS011;57064;52.046;4.800;2023-02-11T00:44:28;20.10;;;4.47;;
69789;SDS011;57064;52.046;4.800;2023-02-11T00:46:54;19.50;;;3.67;;
69789;SDS011;57064;52.046;4.800;2023-02-11T00:49:20;21.10;;;3.95;;
69789;SDS011;57064;52.046;4.800;2023-02-11T00:51:46;16.83;;;3.90;;
69789;SDS011;57064;52.046;4.800;2023-02-11T00:54:12;24.38;;;4.55;;
69789;SDS011;57064;52.046;4.800;2023-02-11T00:56:38;18.00;;;4.55;;
69789;SDS011;57064;52.046;4.800;2023-02-11T00:59:04;19.95;;;4.32;;
69789;SDS011;57064;52.046;4.800;2023-02-11T01:01:30;17.10;;;3.70;;
69789;SDS011;57064;52.046;4.800;2023-02-11T01:03:56;13.13;;;3.55;;
69789;SDS011;57064;52.046;4.800;2023-02-11T01:06:22;17.42;;;3.63;;
69789;SDS011;57064;52.046;4.800;2023-02-11T01:08:48;26.70;;;4.97;;
69789;SDS011;57064;52.046;4.800;2023-02-11T01:11:17;12.50;;;3.40;;
69789;SDS011;57064;52.046;4.800;2023-02-11T01:13:44;28.38;;;4.88;;
69789;SDS011;57064;52.046;4.800;2023-02-11T01:16:11;20.05;;;4.38;;
69789;SDS011;57064;52.046;4.800;2023-02-11T01:18:37;17.23;;;3.85;;
69789;SDS011;57064;52.046;4.800;2023-02-11T01:21:04;19.13;;;3.75;;
69789;SDS011;57064;52.046;4.800;2023-02-11T01:23:30;16.30;;;3.55;;
69789;SDS011;57064;52.046;4.800;2023-02-11T01:25:56;10.43;;;3.40;;
69789;SDS011;57064;52.046;4.800;2023-02-11T01:28:23;16.98;;;3.65;;
69789;SDS011;57064;52.046;4.800;2023-02-11T01:30:51;20.48;;;4.70;;
69789;SDS011;57064;52.046;4.800;2023-02-11T01:33:17;15.07;;;3.78;;
69789;SDS011;57064;52.046;4.800;2023-02-11T01:35:44;14.18;;;3.42;;
69789;SDS011;57064;52.046;4.800;2023-02-11T01:38:17;12.98;;;3.63;;
69789;SDS011;57064;52.046;4.800;2023-02-11T01:40:46;14.95;;;3.70;;
69789;SDS011;57064;52.046;4.800;2023-02-11T01:43:14;21.27;;;3.70;;
69789;SDS011;57064;52.046;4.800;2023-02-11T01:48:14;22.02;;;4.38;;
69789;SDS011;57064;52.046;4.800;2023-02-11T01:50:54;11.38;;;4.15;;
69789;SDS011;57064;52.046;4.800;2023-02-11T01:53:33;21.70;;;4.53;;
69789;SDS011;57064;52.046;4.800;2023-02-11T01:56:19;14.05;;;4.60;;
69789;SDS011;57064;52.046;4.800;2023-02-11T01:59:06;12.98;;;4.10;;
69789;SDS011;57064;52.046;4.800;2023-02-11T02:01:38;17.73;;;3.83;;
69789;SDS011;57064;52.046;4.800;2023-02-11T02:04:07;9.13;;;3.60;;
69789;SDS011;57064;52.046;4.800;2023-02-11T02:06:36;25.00;;;3.90;;
69789;SDS011;57064;52.046;4.800;2023-02-11T02:09:12;11.65;;;4.10;;
69789;SDS011;57064;52.046;4.800;2023-02-11T02:11:44;16.38;;;4.25;;
69789;SDS011;57064;52.046;4.800;2023-02-11T02:14:10;23.80;;;5.45;;
69789;SDS011;57064;52.046;4.800;2023-02-11T02:16:36;18.13;;;4.82;;
69789;SDS011;57064;52.046;4.800;2023-02-11T02:27:43;28.55;;;5.40;;
69789;SDS011;57064;52.046;4.800;2023-02-11T02:36:04;18.85;;;5.25;;
69789;SDS011;57064;52.046;4.800;2023-02-11T02:41:10;15.30;;;5.30;;
69789;SDS011;57064;52.046;4.800;2023-02-11T02:43:43;21.55;;;4.55;;
69789;SDS011;57064;52.046;4.800;2023-02-11T02:46:15;18.92;;;4.65;;
69789;SDS011;57064;52.046;4.800;2023-02-11T02:48:50;20.00;;;5.85;;
69789;SDS011;57064;52.046;4.800;2023-02-11T02:56:55;23.98;;;5.70;;
69789;SDS011;57064;52.046;4.800;2023-02-11T02:59:38;23.70;;;7.68;;
69789;SDS011;57064;52.046;4.800;2023-02-11T03:07:56;29.25;;;7.13;;
69789;SDS011;57064;52.046;4.800;2023-02-11T03:10:33;17.38;;;5.68;;
69789;SDS011;57064;52.046;4.800;2023-02-11T03:13:04;22.88;;;5.30;;
69789;SDS011;57064;52.046;4.800;2023-02-11T03:15:33;21.88;;;6.43;;
69789;SDS011;57064;52.046;4.800;2023-02-11T03:18:05;19.60;;;5.97;;
69789;SDS011;57064;52.046;4.800;2023-02-11T03:20:35;23.15;;;5.55;;
69789;SDS011;57064;52.046;4.800;2023-02-11T03:23:05;20.15;;;6.18;;
69789;SDS011;57064;52.046;4.800;2023-02-11T03:25:37;21.65;;;6.07;;
69789;SDS011;57064;52.046;4.800;2023-02-11T03:28:33;20.58;;;5.63;;
69789;SDS011;57064;52.046;4.800;2023-02-11T03:31:19;29.20;;;6.43;;
69789;SDS011;57064;52.046;4.800;2023-02-11T03:36:31;15.45;;;5.50;;
69789;SDS011;57064;52.046;4.800;2023-02-11T03:39:05;20.55;;;6.10;;
69789;SDS011;57064;52.046;4.800;2023-02-11T03:41:33;15.88;;;5.88;;
69789;SDS011;57064;52.046;4.800;2023-02-11T03:44:00;21.15;;;7.00;;
69789;SDS011;57064;52.046;4.800;2023-02-11T03:46:31;20.50;;;6.00;;
69789;SDS011;57064;52.046;4.800;2023-02-11T03:49:02;27.35;;;6.80;;
69789;SDS011;57064;52.046;4.800;2023-02-11T03:51:31;27.60;;;8.48;;
69789;SDS011;57064;52.046;4.800;2023-02-11T03:53:59;32.75;;;8.27;;
69789;SDS011;57064;52.046;4.800;2023-02-11T03:56:28;24.20;;;7.55;;
69789;SDS011;57064;52.046;4.800;2023-02-11T03:58:57;24.80;;;7.47;;
69789;SDS011;57064;52.046;4.800;2023-02-11T04:01:23;26.98;;;7.43;;
69789;SDS011;57064;52.046;4.800;2023-02-11T04:03:50;31.08;;;8.75;;
69789;SDS011;57064;52.046;4.800;2023-02-11T04:06:16;27.35;;;9.07;;
69789;SDS011;57064;52.046;4.800;2023-02-11T04:08:42;33.05;;;8.02;;
69789;SDS011;57064;52.046;4.800;2023-02-11T04:11:08;28.00;;;8.23;;
69789;SDS011;57064;52.046;4.800;2023-02-11T04:13:34;23.00;;;8.82;;
69789;SDS011;57064;52.046;4.800;2023-02-11T04:16:00;37.22;;;11.18;;
69789;SDS011;57064;52.046;4.800;2023-02-11T04:18:26;30.50;;;10.13;;
69789;SDS011;57064;52.046;4.800;2023-02-11T04:20:52;31.85;;;8.48;;
69789;SDS011;57064;52.046;4.800;2023-02-11T04:23:18;27.67;;;8.57;;
69789;SDS011;57064;52.046;4.800;2023-02-11T04:25:44;29.13;;;8.82;;
69789;SDS011;57064;52.046;4.800;2023-02-11T04:28:10;34.83;;;9.88;;
69789;SDS011;57064;52.046;4.800;2023-02-11T04:30:36;30.73;;;9.63;;
69789;SDS011;57064;52.046;4.800;2023-02-11T04:33:03;33.40;;;9.77;;
69789;SDS011;57064;52.046;4.800;2023-02-11T04:35:29;37.08;;;10.10;;
69789;SDS011;57064;52.046;4.800;2023-02-11T04:37:55;34.08;;;11.15;;
69789;SDS011;57064;52.046;4.800;2023-02-11T04:40:21;39.33;;;10.82;;
69789;SDS011;57064;52.046;4.800;2023-02-11T04:42:47;26.90;;;10.13;;
69789;SDS011;57064;52.046;4.800;2023-02-11T04:45:13;28.38;;;8.88;;
69789;SDS011;57064;52.046;4.800;2023-02-11T04:47:39;33.83;;;10.18;;
69789;SDS011;57064;52.046;4.800;2023-02-11T04:50:05;31.15;;;10.75;;
69789;SDS011;57064;52.046;4.800;2023-02-11T04:52:31;32.00;;;10.55;;
69789;SDS011;57064;52.046;4.800;2023-02-11T04:54:57;43.90;;;12.05;;
69789;SDS011;57064;52.046;4.800;2023-02-11T04:57:23;31.17;;;10.23;;
69789;SDS011;57064;52.046;4.800;2023-02-11T04:59:50;41.38;;;10.93;;
69789;SDS011;57064;52.046;4.800;2023-02-11T05:02:16;35.60;;;10.68;;
69789;SDS011;57064;52.046;4.800;2023-02-11T05:04:42;37.90;;;10.15;;
69789;SDS011;57064;52.046;4.800;2023-02-11T05:07:08;36.58;;;10.25;;
69789;SDS011;57064;52.046;4.800;2023-02-11T05:09:34;36.22;;;9.63;;
69789;SDS011;57064;52.046;4.800;2023-02-11T05:12:00;32.83;;;9.88;;
69789;SDS011;57064;52.046;4.800;2023-02-11T05:14:26;37.22;;;10.90;;
69789;SDS011;57064;52.046;4.800;2023-02-11T05:16:52;34.78;;;10.07;;
69789;SDS011;57064;52.046;4.800;2023-02-11T05:19:18;32.28;;;10.00;;
69789;SDS011;57064;52.046;4.800;2023-02-11T05:21:45;58.55;;;11.77;;
69789;SDS011;57064;52.046;4.800;2023-02-11T05:24:11;40.63;;;10.10;;
69789;SDS011;57064;52.046;4.800;2023-02-11T05:26:37;30.33;;;10.40;;
69789;SDS011;57064;52.046;4.800;2023-02-11T05:29:03;33.92;;;10.95;;
69789;SDS011;57064;52.046;4.800;2023-02-11T05:31:30;36.28;;;11.38;;
69789;SDS011;57064;52.046;4.800;2023-02-11T05:33:56;37.40;;;10.93;;
69789;SDS011;57064;52.046;4.800;2023-02-11T05:36:22;39.20;;;12.65;;
69789;SDS011;57064;52.046;4.800;2023-02-11T05:38:48;41.13;;;13.55;;
69789;SDS011;57064;52.046;4.800;2023-02-11T05:41:15;43.40;;;12.68;;
69789;SDS011;57064;52.046;4.800;2023-02-11T05:43:41;42.58;;;13.38;;
69789;SDS011;57064;52.046;4.800;2023-02-11T05:46:07;45.88;;;13.93;;
69789;SDS011;57064;52.046;4.800;2023-02-11T05:48:33;35.88;;;12.95;;
69789;SDS011;57064;52.046;4.800;2023-02-11T05:50:59;49.67;;;14.48;;
69789;SDS011;57064;52.046;4.800;2023-02-11T05:53:25;43.15;;;14.23;;
69789;SDS011;57064;52.046;4.800;2023-02-11T05:55:51;42.63;;;14.80;;
69789;SDS011;57064;52.046;4.800;2023-02-11T05:58:17;42.30;;;15.48;;
69789;SDS011;57064;52.046;4.800;2023-02-11T06:00:43;50.72;;;16.65;;
69789;SDS011;57064;52.046;4.800;2023-02-11T06:03:09;45.15;;;14.93;;
69789;SDS011;57064;52.046;4.800;2023-02-11T06:05:35;36.35;;;15.10;;
69789;SDS011;57064;52.046;4.800;2023-02-11T06:08:01;52.22;;;15.52;;
69789;SDS011;57064;52.046;4.800;2023-02-11T06:10:28;44.60;;;14.63;;
69789;SDS011;57064;52.046;4.800;2023-02-11T06:12:54;44.78;;;13.50;;
69789;SDS011;57064;52.046;4.800;2023-02-11T06:15:20;39.15;;;13.25;;
69789;SDS011;57064;52.046;4.800;2023-02-11T06:17:46;40.70;;;13.68;;
69789;SDS011;57064;52.046;4.800;2023-02-11T06:20:12;46.13;;;14.90;;
69789;SDS011;57064;52.046;4.800;2023-02-11T06:22:38;50.40;;;16.30;;
69789;SDS011;57064;52.046;4.800;2023-02-11T06:25:04;43.72;;;16.35;;
69789;SDS011;57064;52.046;4.800;2023-02-11T06:27:30;45.03;;;15.13;;
69789;SDS011;57064;52.046;4.800;2023-02-11T06:29:57;45.10;;;15.35;;
69789;SDS011;57064;52.046;4.800;2023-02-11T06:32:23;52.90;;;15.48;;
69789;SDS011;57064;52.046;4.800;2023-02-11T06:34:50;54.00;;;17.55;;
69789;SDS011;57064;52.046;4.800;2023-02-11T06:37:16;57.97;;;18.63;;
69789;SDS011;57064;52.046;4.800;2023-02-11T06:39:43;56.30;;;18.60;;
69789;SDS011;57064;52.046;4.800;2023-02-11T06:42:09;48.20;;;17.83;;
69789;SDS011;57064;52.046;4.800;2023-02-11T06:44:35;47.15;;;16.50;;
69789;SDS011;57064;52.046;4.800;2023-02-11T06:47:01;57.33;;;18.08;;
69789;SDS011;57064;52.046;4.800;2023-02-11T06:49:27;51.20;;;16.88;;
69789;SDS011;57064;52.046;4.800;2023-02-11T06:51:54;50.85;;;17.45;;
69789;SDS011;57064;52.046;4.800;2023-02-11T06:54:20;45.20;;;18.02;;
69789;SDS011;57064;52.046;4.800;2023-02-11T06:56:46;53.05;;;17.73;;
69789;SDS011;57064;52.046;4.800;2023-02-11T06:59:15;47.95;;;16.65;;
69789;SDS011;57064;52.046;4.800;2023-02-11T07:01:43;60.60;;;17.60;;
69789;SDS011;57064;52.046;4.800;2023-02-11T07:04:10;50.90;;;19.55;;
69789;SDS011;57064;52.046;4.800;2023-02-11T07:06:36;55.00;;;17.33;;
69789;SDS011;57064;52.046;4.800;2023-02-11T07:09:03;51.03;;;17.75;;
69789;SDS011;57064;52.046;4.800;2023-02-11T07:11:29;48.53;;;17.95;;
69789;SDS011;57064;52.046;4.800;2023-02-11T07:13:59;49.00;;;17.92;;
69789;SDS011;57064;52.046;4.800;2023-02-11T07:16:28;53.72;;;18.70;;
69789;SDS011;57064;52.046;4.800;2023-02-11T07:18:55;50.20;;;17.20;;
69789;SDS011;57064;52.046;4.800;2023-02-11T07:21:21;49.30;;;18.48;;
69789;SDS011;57064;52.046;4.800;2023-02-11T07:23:48;62.85;;;18.20;;
69789;SDS011;57064;52.046;4.800;2023-02-11T07:26:19;58.63;;;18.77;;
69789;SDS011;57064;52.046;4.800;2023-02-11T07:28:47;59.70;;;19.45;;
69789;SDS011;57064;52.046;4.800;2023-02-11T07:31:21;46.00;;;19.55;;
69789;SDS011;57064;52.046;4.800;2023-02-11T07:33:50;56.05;;;20.50;;
69789;SDS011;57064;52.046;4.800;2023-02-11T07:36:17;56.95;;;18.30;;
69789;SDS011;57064;52.046;4.800;2023-02-11T07:38:43;59.38;;;20.65;;
69789;SDS011;57064;52.046;4.800;2023-02-11T07:41:10;58.70;;;19.85;;
69789;SDS011;57064;52.046;4.800;2023-02-11T07:43:39;58.13;;;19.98;;
69789;SDS011;57064;52.046;4.800;2023-02-11T07:46:07;57.28;;;18.98;;
69789;SDS011;57064;52.046;4.800;2023-02-11T07:48:34;54.65;;;19.80;;
69789;SDS011;57064;52.046;4.800;2023-02-11T07:51:08;55.97;;;19.85;;
69789;SDS011;57064;52.046;4.800;2023-02-11T07:53:41;60.60;;;21.58;;
69789;SDS011;57064;52.046;4.800;2023-02-11T07:56:08;54.17;;;19.85;;
69789;SDS011;57064;52.046;4.800;2023-02-11T07:58:35;75.60;;;22.90;;
69789;SDS011;57064;52.046;4.800;2023-02-11T08:01:05;56.65;;;21.55;;
69789;SDS011;57064;52.046;4.800;2023-02-11T08:03:33;58.10;;;21.70;;
69789;SDS011;57064;52.046;4.800;2023-02-11T08:06:07;58.25;;;19.92;;
69789;SDS011;57064;52.046;4.800;2023-02-11T08:08:35;56.88;;;20.80;;
69789;SDS011;57064;52.046;4.800;2023-02-11T08:11:07;46.95;;;19.52;;
69789;SDS011;57064;52.046;4.800;2023-02-11T08:13:36;58.95;;;21.45;;
69789;SDS011;57064;52.046;4.800;2023-02-11T08:16:02;57.03;;;21.50;;
69789;SDS011;57064;52.046;4.800;2023-02-11T08:18:29;61.13;;;21.45;;
69789;SDS011;57064;52.046;4.800;2023-02-11T08:21:07;61.67;;;21.55;;
69789;SDS011;57064;52.046;4.800;2023-02-11T08:23:35;59.78;;;23.02;;
69789;SDS011;57064;52.046;4.800;2023-02-11T08:26:06;56.25;;;21.65;;
69789;SDS011;57064;52.046;4.800;2023-02-11T08:28:35;49.08;;;19.98;;
69789;SDS011;57064;52.046;4.800;2023-02-11T08:31:05;58.22;;;21.23;;
69789;SDS011;57064;52.046;4.800;2023-02-11T08:33:33;56.38;;;21.05;;
69789;SDS011;57064;52.046;4.800;2023-02-11T08:36:00;59.40;;;20.20;;
69789;SDS011;57064;52.046;4.800;2023-02-11T08:38:31;55.78;;;19.10;;
69789;SDS011;57064;52.046;4.800;2023-02-11T08:40:58;46.67;;;18.83;;
69789;SDS011;57064;52.046;4.800;2023-02-11T08:43:25;51.85;;;19.63;;
69789;SDS011;57064;52.046;4.800;2023-02-11T08:45:52;45.45;;;19.35;;
69789;SDS011;57064;52.046;4.800;2023-02-11T08:48:18;49.47;;;20.02;;
69789;SDS011;57064;52.046;4.800;2023-02-11T08:50:44;48.42;;;19.23;;
69789;SDS011;57064;52.046;4.800;2023-02-11T08:53:10;50.25;;;19.58;;
69789;SDS011;57064;52.046;4.800;2023-02-11T08:55:36;42.50;;;18.95;;
69789;SDS011;57064;52.046;4.800;2023-02-11T08:58:02;45.20;;;18.63;;
69789;SDS011;57064;52.046;4.800;2023-02-11T09:00:28;45.70;;;17.85;;
69789;SDS011;57064;52.046;4.800;2023-02-11T09:02:54;54.83;;;19.98;;
69789;SDS011;57064;52.046;4.800;2023-02-11T09:05:21;51.83;;;20.27;;
69789;SDS011;57064;52.046;4.800;2023-02-11T09:07:47;43.28;;;18.38;;
69789;SDS011;57064;52.046;4.800;2023-02-11T09:10:13;51.78;;;21.20;;
69789;SDS011;57064;52.046;4.800;2023-02-11T09:12:39;56.42;;;20.15;;
69789;SDS011;57064;52.046;4.800;2023-02-11T09:15:05;51.08;;;19.17;;
69789;SDS011;57064;52.046;4.800;2023-02-11T09:17:32;49.92;;;20.05;;
69789;SDS011;57064;52.046;4.800;2023-02-11T09:19:58;52.10;;;22.48;;
69789;SDS011;57064;52.046;4.800;2023-02-11T09:22:24;54.92;;;20.73;;
69789;SDS011;57064;52.046;4.800;2023-02-11T09:24:50;52.67;;;20.40;;
69789;SDS011;57064;52.046;4.800;2023-02-11T09:27:16;53.45;;;20.30;;
69789;SDS011;57064;52.046;4.800;2023-02-11T09:29:42;50.13;;;20.90;;
69789;SDS011;57064;52.046;4.800;2023-02-11T09:32:08;54.30;;;21.20;;
69789;SDS011;57064;52.046;4.800;2023-02-11T09:34:34;53.92;;;21.38;;
69789;SDS011;57064;52.046;4.800;2023-02-11T09:37:01;48.85;;;19.23;;
69789;SDS011;57064;52.046;4.800;2023-02-11T09:39:27;46.97;;;20.88;;
69789;SDS011;57064;52.046;4.800;2023-02-11T09:41:58;54.72;;;20.10;;
69789;SDS011;57064;52.046;4.800;2023-02-11T09:44:44;46.78;;;19.25;;
69789;SDS011;57064;52.046;4.800;2023-02-11T09:49:49;42.42;;;17.77;;
69789;SDS011;57064;52.046;4.800;2023-02-11T09:52:29;45.15;;;18.40;;
69789;SDS011;57064;52.046;4.800;2023-02-11T09:55:01;45.30;;;18.13;;
69789;SDS011;57064;52.046;4.800;2023-02-11T09:57:33;46.08;;;18.83;;
69789;SDS011;57064;52.046;4.800;2023-02-11T10:00:02;48.23;;;17.50;;
69789;SDS011;57064;52.046;4.800;2023-02-11T10:08:25;42.88;;;18.70;;
69789;SDS011;57064;52.046;4.800;2023-02-11T10:11:11;37.10;;;15.32;;
69789;SDS011;57064;52.046;4.800;2023-02-11T10:22:56;31.13;;;14.50;;
69789;SDS011;57064;52.046;4.800;2023-02-11T10:25:44;31.02;;;13.75;;
69789;SDS011;57064;52.046;4.800;2023-02-11T10:28:22;29.42;;;13.88;;
69789;SDS011;57064;52.046;4.800;2023-02-11T10:31:02;27.88;;;11.57;;
69789;SDS011;57064;52.046;4.800;2023-02-11T10:36:23;28.15;;;13.18;;
69789;SDS011;57064;52.046;4.800;2023-02-11T10:41:25;23.50;;;11.77;;
69789;SDS011;57064;52.046;4.800;2023-02-11T10:43:58;26.20;;;12.05;;
69789;SDS011;57064;52.046;4.800;2023-02-11T10:46:28;22.77;;;11.15;;
69789;SDS011;57064;52.046;4.800;2023-02-11T10:48:56;19.77;;;9.55;;
69789;SDS011;57064;52.046;4.800;2023-02-11T10:51:23;20.55;;;8.73;;
69789;SDS011;57064;52.046;4.800;2023-02-11T10:56:29;13.88;;;8.52;;
69789;SDS011;57064;52.046;4.800;2023-02-11T10:59:01;17.27;;;8.20;;
69789;SDS011;57064;52.046;4.800;2023-02-11T11:01:39;15.48;;;8.48;;
69789;SDS011;57064;52.046;4.800;2023-02-11T11:06:55;14.65;;;8.18;;
69789;SDS011;57064;52.046;4.800;2023-02-11T11:09:29;14.20;;;8.82;;
69789;SDS011;57064;52.046;4.800;2023-02-11T11:12:28;13.63;;;8.32;;
69789;SDS011;57064;52.046;4.800;2023-02-11T11:15:13;17.48;;;8.73;;
69789;SDS011;57064;52.046;4.800;2023-02-11T11:17:45;22.95;;;9.43;;
69789;SDS011;57064;52.046;4.800;2023-02-11T11:22:48;16.40;;;8.60;;
69789;SDS011;57064;52.046;4.800;2023-02-11T11:25:19;14.93;;;9.00;;
69789;SDS011;57064;52.046;4.800;2023-02-11T11:27:48;15.68;;;7.10;;
69789;SDS011;57064;52.046;4.800;2023-02-11T11:30:16;18.75;;;9.10;;
69789;SDS011;57064;52.046;4.800;2023-02-11T11:32:42;15.32;;;8.80;;
69789;SDS011;57064;52.046;4.800;2023-02-11T11:35:26;15.30;;;8.00;;
69789;SDS011;57064;52.046;4.800;2023-02-11T11:37:54;17.35;;;8.20;;
69789;SDS011;57064;52.046;4.800;2023-02-11T11:40:29;16.42;;;7.88;;
69789;SDS011;57064;52.046;4.800;2023-02-11T11:43:02;16.95;;;8.70;;
69789;SDS011;57064;52.046;4.800;2023-02-11T11:45:37;16.80;;;7.88;;
69789;SDS011;57064;52.046;4.800;2023-02-11T11:51:12;15.80;;;8.45;;
69789;SDS011;57064;52.046;4.800;2023-02-11T11:53:45;12.68;;;7.75;;
69789;SDS011;57064;52.046;4.800;2023-02-11T11:56:20;15.43;;;7.13;;
69789;SDS011;57064;52.046;4.800;2023-02-11T11:58:48;15.88;;;8.32;;
69789;SDS011;57064;52.046;4.800;2023-02-11T12:09:24;13.30;;;7.38;;
69789;SDS011;57064;52.046;4.800;2023-02-11T12:12:01;14.30;;;8.15;;
69789;SDS011;57064;52.046;4.800;2023-02-11T12:14:52;13.07;;;7.60;;
69789;SDS011;57064;52.046;4.800;2023-02-11T12:17:25;16.02;;;8.23;;
69789;SDS011;57064;52.046;4.800;2023-02-11T12:26:03;15.75;;;8.13;;
69789;SDS011;57064;52.046;4.800;2023-02-11T12:39:50;14.90;;;8.77;;
69789;SDS011;57064;52.046;4.800;2023-02-11T12:51:11;14.23;;;7.43;;
69789;SDS011;57064;52.046;4.800;2023-02-11T12:56:12;14.43;;;7.70;;
69789;SDS011;57064;52.046;4.800;2023-02-11T12:58:47;16.85;;;7.25;;
69789;SDS011;57064;52.046;4.800;2023-02-11T13:01:22;15.32;;;7.20;;
69789;SDS011;57064;52.046;4.800;2023-02-11T13:03:56;14.90;;;7.30;;
69789;SDS011;57064;52.046;4.800;2023-02-11T13:06:50;11.73;;;6.15;;
69789;SDS011;57064;52.046;4.800;2023-02-11T13:09:23;13.63;;;6.63;;
69789;SDS011;57064;52.046;4.800;2023-02-11T13:11:54;11.80;;;6.07;;
69789;SDS011;57064;52.046;4.800;2023-02-11T13:14:32;13.27;;;6.28;;
69789;SDS011;57064;52.046;4.800;2023-02-11T13:17:03;13.00;;;6.65;;
69789;SDS011;57064;52.046;4.800;2023-02-11T13:19:46;12.25;;;7.25;;
69789;SDS011;57064;52.046;4.800;2023-02-11T13:22:22;13.77;;;7.60;;
69789;SDS011;57064;52.046;4.800;2023-02-11T13:28:22;16.98;;;6.95;;
69789;SDS011;57064;52.046;4.800;2023-02-11T13:31:00;13.80;;;6.57;;
69789;SDS011;57064;52.046;4.800;2023-02-11T13:38:27;15.10;;;7.03;;
69789;SDS011;57064;52.046;4.800;2023-02-11T13:43:32;12.45;;;6.25;;
69789;SDS011;57064;52.046;4.800;2023-02-11T13:48:31;15.40;;;6.57;;
69789;SDS011;57064;52.046;4.800;2023-02-11T13:51:02;12.57;;;6.85;;
69789;SDS011;57064;52.046;4.800;2023-02-11T13:53:41;12.00;;;6.43;;
69789;SDS011;57064;52.046;4.800;2023-02-11T13:56:21;11.57;;;5.78;;
69789;SDS011;57064;52.046;4.800;2023-02-11T13:59:00;12.13;;;5.97;;
69789;SDS011;57064;52.046;4.800;2023-02-11T14:14:23;10.43;;;5.82;;
69789;SDS011;57064;52.046;4.800;2023-02-11T14:16:27;11.60;;;6.57;;
69789;SDS011;57064;52.046;4.800;2023-02-11T14:23:52;11.48;;;6.13;;
69789;SDS011;57064;52.046;4.800;2023-02-11T14:29:17;15.00;;;5.30;;
69789;SDS011;57064;52.046;4.800;2023-02-11T14:35:11;13.13;;;6.20;;
69789;SDS011;57064;52.046;4.800;2023-02-11T14:37:51;9.60;;;4.82;;
69789;SDS011;57064;52.046;4.800;2023-02-11T14:40:28;10.23;;;5.13;;
69789;SDS011;57064;52.046;4.800;2023-02-11T14:43:15;14.02;;;5.88;;
69789;SDS011;57064;52.046;4.800;2023-02-11T14:45:55;14.30;;;5.65;;
69789;SDS011;57064;52.046;4.800;2023-02-11T14:48:29;11.48;;;5.80;;
69789;SDS011;57064;52.046;4.800;2023-02-11T14:53:37;9.45;;;5.50;;
69789;SDS011;57064;52.046;4.800;2023-02-11T14:58:50;21.08;;;8.85;;
69789;SDS011;57064;52.046;4.800;2023-02-11T15:01:30;18.42;;;9.07;;
69789;SDS011;57064;52.046;4.800;2023-02-11T15:03:59;24.73;;;10.93;;
69789;SDS011;57064;52.046;4.800;2023-02-11T15:09:04;16.42;;;8.52;;
69789;SDS011;57064;52.046;4.800;2023-02-11T15:11:51;17.83;;;9.55;;
69789;SDS011;57064;52.046;4.800;2023-02-11T15:16:46;11.30;;;5.38;;
69789;SDS011;57064;52.046;4.800;2023-02-11T15:21:52;11.82;;;6.47;;
69789;SDS011;57064;52.046;4.800;2023-02-11T15:24:20;16.75;;;6.65;;
69789;SDS011;57064;52.046;4.800;2023-02-11T15:27:10;16.05;;;6.13;;
69789;SDS011;57064;52.046;4.800;2023-02-11T15:29:43;12.32;;;6.07;;
69789;SDS011;57064;52.046;4.800;2023-02-11T15:34:41;10.95;;;5.45;;
69789;SDS011;57064;52.046;4.800;2023-02-11T15:37:17;13.25;;;6.15;;
69789;SDS011;57064;52.046;4.800;2023-02-11T15:39:49;14.25;;;7.18;;
69789;SDS011;57064;52.046;4.800;2023-02-11T15:42:23;10.07;;;5.57;;
69789;SDS011;57064;52.046;4.800;2023-02-11T15:47:49;19.40;;;7.30;;
69789;SDS011;57064;52.046;4.800;2023-02-11T15:50:21;12.00;;;6.10;;
69789;SDS011;57064;52.046;4.800;2023-02-11T15:52:49;10.13;;;5.25;;
69789;SDS011;57064;52.046;4.800;2023-02-11T15:55:17;10.90;;;5.35;;
69789;SDS011;57064;52.046;4.800;2023-02-11T15:57:44;10.23;;;5.45;;
69789;SDS011;57064;52.046;4.800;2023-02-11T16:00:22;17.75;;;6.60;;
69789;SDS011;57064;52.046;4.800;2023-02-11T16:02:52;13.98;;;6.13;;
69789;SDS011;57064;52.046;4.800;2023-02-11T16:05:28;10.70;;;5.18;;
69789;SDS011;57064;52.046;4.800;2023-02-11T16:07:58;13.73;;;6.60;;
69789;SDS011;57064;52.046;4.800;2023-02-11T16:10:29;12.43;;;6.05;;
69789;SDS011;57064;52.046;4.800;2023-02-11T16:18:12;9.75;;;5.57;;
69789;SDS011;57064;52.046;4.800;2023-02-11T16:21:11;9.43;;;4.93;;
69789;SDS011;57064;52.046;4.800;2023-02-11T16:23:40;13.75;;;6.00;;
69789;SDS011;57064;52.046;4.800;2023-02-11T16:28:50;11.73;;;6.07;;
69789;SDS011;57064;52.046;4.800;2023-02-11T16:31:17;16.98;;;6.65;;
69789;SDS011;57064;52.046;4.800;2023-02-11T16:33:43;11.45;;;5.88;;
69789;SDS011;57064;52.046;4.800;2023-02-11T16:36:13;14.77;;;6.53;;
69789;SDS011;57064;52.046;4.800;2023-02-11T16:38:43;12.48;;;6.22;;
69789;SDS011;57064;52.046;4.800;2023-02-11T16:41:09;12.00;;;6.10;;
69789;SDS011;57064;52.046;4.800;2023-02-11T16:43:36;13.52;;;5.75;;
69789;SDS011;57064;52.046;4.800;2023-02-11T16:46:03;9.65;;;5.50;;
69789;SDS011;57064;52.046;4.800;2023-02-11T16:48:29;12.82;;;6.50;;
69789;SDS011;57064;52.046;4.800;2023-02-11T16:50:57;10.38;;;5.57;;
69789;SDS011;57064;52.046;4.800;2023-02-11T16:53:23;12.02;;;6.05;;
69789;SDS011;57064;52.046;4.800;2023-02-11T16:55:50;13.68;;;6.72;;
69789;SDS011;57064;52.046;4.800;2023-02-11T16:58:17;11.80;;;5.80;;
69789;SDS011;57064;52.046;4.800;2023-02-11T17:00:44;9.80;;;5.55;;
69789;SDS011;57064;52.046;4.800;2023-02-11T17:03:15;9.65;;;5.40;;
69789;SDS011;57064;52.046;4.800;2023-02-11T17:05:45;11.35;;;5.90;;
69789;SDS011;57064;52.046;4.800;2023-02-11T17:08:12;15.15;;;7.20;;
69789;SDS011;57064;52.046;4.800;2023-02-11T17:10:38;11.05;;;5.93;;
69789;SDS011;57064;52.046;4.800;2023-02-11T17:13:04;10.90;;;5.85;;
69789;SDS011;57064;52.046;4.800;2023-02-11T17:15:31;16.10;;;6.20;;
69789;SDS011;57064;52.046;4.800;2023-02-11T17:17:57;11.18;;;5.95;;
69789;SDS011;57064;52.046;4.800;2023-02-11T17:20:24;15.90;;;6.72;;
69789;SDS011;57064;52.046;4.800;2023-02-11T17:22:50;11.20;;;5.50;;
69789;SDS011;57064;52.046;4.800;2023-02-11T17:25:16;14.77;;;6.05;;
69789;SDS011;57064;52.046;4.800;2023-02-11T17:27:43;10.75;;;5.72;;
69789;SDS011;57064;52.046;4.800;2023-02-11T17:30:11;13.10;;;6.30;;